sensor_id;sensor_type;location;lat;lon;timestamp;pressure;altitude;pressure_sealevel;temperature;humidity
54948;BME280;41113;41.882;12.530;2023-04-24T00:00:57;100750.41;;;16.56;72.91
54948;BME280;41113;41.882;12.530;2023-04-24T00:03:23;100753.66;;;16.60;72.48
54948;BME280;41113;41.882;12.530;2023-04-24T00:05:49;100756.34;;;16.60;72.21
54948;BME280;41113;41.882;12.530;2023-04-24T00:08:15;100749.25;;;16.59;71.97
54948;BME280;41113;41.882;12.530;2023-04-24T00:10:41;100740.22;;;16.58;71.80
54948;BME280;41113;41.882;12.530;2023-04-24T00:13:06;100734.66;;;16.52;71.72
54948;BME280;41113;41.882;12.530;2023-04-24T00:15:31;100721.47;;;16.48;71.71
54948;BME280;41113;41.882;12.530;2023-04-24T00:17:57;100718.25;;;16.45;71.32
54948;BME280;41113;41.882;12.530;2023-04-24T00:20:22;100719.94;;;16.46;71.05
54948;BME280;41113;41.882;12.530;2023-04-24T00:22:47;100722.66;;;16.46;71.16
54948;BME280;41113;41.882;12.530;2023-04-24T00:25:13;100715.38;;;16.46;70.98
54948;BME280;41113;41.882;12.530;2023-04-24T00:27:39;100710.63;;;16.48;70.40
54948;BME280;41113;41.882;12.530;2023-04-24T00:30:05;100718.06;;;16.46;70.55
54948;BME280;41113;41.882;12.530;2023-04-24T00:32:31;100714.00;;;16.50;70.34
54948;BME280;41113;41.882;12.530;2023-04-24T00:34:56;100705.88;;;16.50;70.09
54948;BME280;41113;41.882;12.530;2023-04-24T00:37:21;100698.41;;;16.53;69.90
54948;BME280;41113;41.882;12.530;2023-04-24T00:39:47;100689.41;;;16.52;69.68
54948;BME280;41113;41.882;12.530;2023-04-24T00:42:12;100691.09;;;16.53;69.72
54948;BME280;41113;41.882;12.530;2023-04-24T00:44:38;100683.81;;;16.54;69.49
54948;BME280;41113;41.882;12.530;2023-04-24T00:47:03;100682.47;;;16.49;69.46
54948;BME280;41113;41.882;12.530;2023-04-24T00:49:29;100685.53;;;16.46;69.53
54948;BME280;41113;41.882;12.530;2023-04-24T00:51:57;100683.84;;;16.45;69.43
54948;BME280;41113;41.882;12.530;2023-04-24T00:54:25;100689.28;;;16.45;69.27
54948;BME280;41113;41.882;12.530;2023-04-24T00:56:51;100693.69;;;16.46;69.13
54948;BME280;41113;41.882;12.530;2023-04-24T00:59:16;100699.28;;;16.45;69.13
54948;BME280;41113;41.882;12.530;2023-04-24T01:01:44;100693.00;;;16.44;68.93
54948;BME280;41113;41.882;12.530;2023-04-24T01:04:11;100697.72;;;16.50;68.77
54948;BME280;41113;41.882;12.530;2023-04-24T01:06:39;100690.25;;;16.53;68.66
54948;BME280;41113;41.882;12.530;2023-04-24T01:09:05;100682.31;;;16.51;68.60
54948;BME280;41113;41.882;12.530;2023-04-24T01:11:33;100677.91;;;16.50;68.60
54948;BME280;41113;41.882;12.530;2023-04-24T01:13:58;100679.78;;;16.49;68.30
54948;BME280;41113;41.882;12.530;2023-04-24T01:16:24;100675.38;;;16.48;68.36
54948;BME280;41113;41.882;12.530;2023-04-24T01:18:50;100680.31;;;16.45;68.52
54948;BME280;41113;41.882;12.530;2023-04-24T01:21:15;100678.78;;;16.42;68.70
54948;BME280;41113;41.882;12.530;2023-04-24T01:23:44;100676.06;;;16.42;68.67
54948;BME280;41113;41.882;12.530;2023-04-24T01:26:10;100679.94;;;16.48;68.52
54948;BME280;41113;41.882;12.530;2023-04-24T01:28:35;100668.25;;;16.47;68.66
54948;BME280;41113;41.882;12.530;2023-04-24T01:31:02;100666.88;;;16.52;68.31
54948;BME280;41113;41.882;12.530;2023-04-24T01:33:27;100667.59;;;16.45;68.84
54948;BME280;41113;41.882;12.530;2023-04-24T01:35:53;100659.09;;;16.48;68.63
54948;BME280;41113;41.882;12.530;2023-04-24T01:38:19;100652.31;;;16.53;68.60
54948;BME280;41113;41.882;12.530;2023-04-24T01:40:44;100654.19;;;16.52;68.75
54948;BME280;41113;41.882;12.530;2023-04-24T01:43:11;100661.47;;;16.52;69.03
54948;BME280;41113;41.882;12.530;2023-04-24T01:45:36;100649.28;;;16.47;69.27
54948;BME280;41113;41.882;12.530;2023-04-24T01:48:02;100648.94;;;16.50;68.71
54948;BME280;41113;41.882;12.530;2023-04-24T01:50:27;100647.06;;;16.59;68.59
54948;BME280;41113;41.882;12.530;2023-04-24T01:52:53;100642.47;;;16.60;68.46
54948;BME280;41113;41.882;12.530;2023-04-24T01:55:18;100642.47;;;16.60;68.74
54948;BME280;41113;41.882;12.530;2023-04-24T01:57:44;100642.47;;;16.60;68.75
54948;BME280;41113;41.882;12.530;2023-04-24T02:00:10;100642.47;;;16.60;68.60
54948;BME280;41113;41.882;12.530;2023-04-24T02:02:36;100629.06;;;16.58;68.67
54948;BME280;41113;41.882;12.530;2023-04-24T02:05:02;100640.25;;;16.55;68.87
54948;BME280;41113;41.882;12.530;2023-04-24T02:07:28;100634.00;;;16.55;68.84
54948;BME280;41113;41.882;12.530;2023-04-24T02:09:54;100630.25;;;16.56;68.65
54948;BME280;41113;41.882;12.530;2023-04-24T02:12:20;100627.72;;;16.54;69.05
54948;BME280;41113;41.882;12.530;2023-04-24T02:14:45;100617.25;;;16.51;69.08
54948;BME280;41113;41.882;12.530;2023-04-24T02:17:11;100622.19;;;16.47;69.21
54948;BME280;41113;41.882;12.530;2023-04-24T02:19:37;100620.47;;;16.46;69.17
54948;BME280;41113;41.882;12.530;2023-04-24T02:22:02;100623.34;;;16.53;68.80
54948;BME280;41113;41.882;12.530;2023-04-24T02:24:28;100623.88;;;16.48;69.65
54948;BME280;41113;41.882;12.530;2023-04-24T02:26:53;100620.13;;;16.49;69.13
54948;BME280;41113;41.882;12.530;2023-04-24T02:29:18;100621.66;;;16.52;69.31
54948;BME280;41113;41.882;12.530;2023-04-24T02:31:44;100613.50;;;16.52;69.52
54948;BME280;41113;41.882;12.530;2023-04-24T02:34:09;100618.09;;;16.52;69.73
54948;BME280;41113;41.882;12.530;2023-04-24T02:36:35;100609.97;;;16.52;69.81
54948;BME280;41113;41.882;12.530;2023-04-24T02:39:00;100596.22;;;16.53;70.19
54948;BME280;41113;41.882;12.530;2023-04-24T02:41:26;100592.66;;;16.53;70.53
54948;BME280;41113;41.882;12.530;2023-04-24T02:43:56;100587.59;;;16.49;70.63
54948;BME280;41113;41.882;12.530;2023-04-24T02:46:21;100589.97;;;16.53;70.53
54948;BME280;41113;41.882;12.530;2023-04-24T02:48:47;100592.66;;;16.53;70.39
54948;BME280;41113;41.882;12.530;2023-04-24T02:51:12;100589.41;;;16.57;70.93
54948;BME280;41113;41.882;12.530;2023-04-24T02:53:37;100587.72;;;16.56;70.84
54948;BME280;41113;41.882;12.530;2023-04-24T02:56:03;100578.44;;;16.50;72.17
54948;BME280;41113;41.882;12.530;2023-04-24T02:58:28;100576.09;;;16.47;71.26
54948;BME280;41113;41.882;12.530;2023-04-24T03:00:54;100557.28;;;16.46;71.55
54948;BME280;41113;41.882;12.530;2023-04-24T03:03:23;100565.06;;;16.49;71.49
54948;BME280;41113;41.882;12.530;2023-04-24T03:05:48;100570.00;;;16.45;72.72
54948;BME280;41113;41.882;12.530;2023-04-24T03:08:14;100578.81;;;16.47;71.61
54948;BME280;41113;41.882;12.530;2023-04-24T03:10:40;100576.09;;;16.47;72.66
54948;BME280;41113;41.882;12.530;2023-04-24T03:13:06;100578.13;;;16.45;73.22
54948;BME280;41113;41.882;12.530;2023-04-24T03:15:31;100576.75;;;16.49;71.77
54948;BME280;41113;41.882;12.530;2023-04-24T03:17:57;100570.97;;;16.53;72.08
54948;BME280;41113;41.882;12.530;2023-04-24T03:20:22;100567.91;;;16.56;72.08
54948;BME280;41113;41.882;12.530;2023-04-24T03:22:48;100574.34;;;16.55;72.40
54948;BME280;41113;41.882;12.530;2023-04-24T03:25:13;100577.72;;;16.57;72.94
54948;BME280;41113;41.882;12.530;2023-04-24T03:27:39;100566.72;;;16.58;72.35
54948;BME280;41113;41.882;12.530;2023-04-24T03:30:08;100562.47;;;16.56;72.87
54948;BME280;41113;41.882;12.530;2023-04-24T03:32:33;100566.03;;;16.56;74.51
54948;BME280;41113;41.882;12.530;2023-04-24T03:34:59;100569.59;;;16.57;73.09
54948;BME280;41113;41.882;12.530;2023-04-24T03:37:24;100567.72;;;16.57;72.99
54948;BME280;41113;41.882;12.530;2023-04-24T03:39:50;100557.72;;;16.58;74.43
54948;BME280;41113;41.882;12.530;2023-04-24T03:42:16;100553.31;;;16.57;73.35
54948;BME280;41113;41.882;12.530;2023-04-24T03:44:41;100549.59;;;16.58;73.42
54948;BME280;41113;41.882;12.530;2023-04-24T03:47:06;100533.50;;;16.56;74.39
54948;BME280;41113;41.882;12.530;2023-04-24T03:49:32;100533.31;;;16.58;73.55
54948;BME280;41113;41.882;12.530;2023-04-24T03:51:57;100524.34;;;16.57;73.96
54948;BME280;41113;41.882;12.530;2023-04-24T03:54:22;100510.13;;;16.55;74.52
54948;BME280;41113;41.882;12.530;2023-04-24T03:56:48;100512.53;;;16.50;74.76
54948;BME280;41113;41.882;12.530;2023-04-24T03:59:13;100515.78;;;16.45;74.71
54948;BME280;41113;41.882;12.530;2023-04-24T04:01:38;100521.56;;;16.42;75.56
54948;BME280;41113;41.882;12.530;2023-04-24T04:04:05;100529.94;;;16.33;77.58
54948;BME280;41113;41.882;12.530;2023-04-24T04:06:30;100535.19;;;16.34;75.66
54948;BME280;41113;41.882;12.530;2023-04-24T04:08:56;100518.91;;;16.34;76.83
54948;BME280;41113;41.882;12.530;2023-04-24T04:11:23;100512.47;;;16.35;75.81
54948;BME280;41113;41.882;12.530;2023-04-24T04:13:48;100511.44;;;16.36;75.71
54948;BME280;41113;41.882;12.530;2023-04-24T04:16:14;100509.41;;;16.38;76.01
54948;BME280;41113;41.882;12.530;2023-04-24T04:18:42;100519.63;;;16.28;77.14
54948;BME280;41113;41.882;12.530;2023-04-24T04:21:07;100524.69;;;16.31;76.66
54948;BME280;41113;41.882;12.530;2023-04-24T04:23:33;100523.84;;;16.31;76.50
54948;BME280;41113;41.882;12.530;2023-04-24T04:25:58;100524.03;;;16.29;77.00
54948;BME280;41113;41.882;12.530;2023-04-24T04:28:23;100514.69;;;16.32;76.60
54948;BME280;41113;41.882;12.530;2023-04-24T04:30:50;100513.84;;;16.31;77.05
54948;BME280;41113;41.882;12.530;2023-04-24T04:33:19;100523.50;;;16.34;76.73
54948;BME280;41113;41.882;12.530;2023-04-24T04:35:44;100513.50;;;16.34;76.71
54948;BME280;41113;41.882;12.530;2023-04-24T04:38:13;100514.81;;;16.38;76.49
54948;BME280;41113;41.882;12.530;2023-04-24T04:40:40;100528.06;;;16.33;78.30
54948;BME280;41113;41.882;12.530;2023-04-24T04:43:05;100538.91;;;16.33;77.18
54948;BME280;41113;41.882;12.530;2023-04-24T04:45:31;100543.63;;;16.39;76.94
54948;BME280;41113;41.882;12.530;2023-04-24T04:47:58;100557.84;;;16.41;76.90
54948;BME280;41113;41.882;12.530;2023-04-24T04:50:26;100549.03;;;16.39;77.09
54948;BME280;41113;41.882;12.530;2023-04-24T04:52:52;100554.44;;;16.39;77.36
54948;BME280;41113;41.882;12.530;2023-04-24T04:55:18;100559.03;;;16.39;77.07
54948;BME280;41113;41.882;12.530;2023-04-24T04:57:47;100551.91;;;16.38;78.91
54948;BME280;41113;41.882;12.530;2023-04-24T05:00:12;100547.16;;;16.40;77.56
54948;BME280;41113;41.882;12.530;2023-04-24T05:02:38;100557.16;;;16.39;77.57
54948;BME280;41113;41.882;12.530;2023-04-24T05:05:05;100556.50;;;16.37;77.99
54948;BME280;41113;41.882;12.530;2023-04-24T05:07:31;100563.59;;;16.38;78.14
54948;BME280;41113;41.882;12.530;2023-04-24T05:09:56;100568.66;;;16.41;78.48
54948;BME280;41113;41.882;12.530;2023-04-24T05:12:22;100569.69;;;16.40;78.31
54948;BME280;41113;41.882;12.530;2023-04-24T05:14:47;100573.59;;;16.38;78.19
54948;BME280;41113;41.882;12.530;2023-04-24T05:17:12;100553.13;;;16.35;78.59
54948;BME280;41113;41.882;12.530;2023-04-24T05:19:38;100555.00;;;16.35;78.37
54948;BME280;41113;41.882;12.530;2023-04-24T05:22:04;100554.44;;;16.39;78.61
54948;BME280;41113;41.882;12.530;2023-04-24T05:24:32;100556.81;;;16.42;77.97
54948;BME280;41113;41.882;12.530;2023-04-24T05:26:58;100556.56;;;16.52;77.60
54948;BME280;41113;41.882;12.530;2023-04-24T05:29:24;100543.50;;;16.56;77.59
54948;BME280;41113;41.882;12.530;2023-04-24T05:31:50;100557.56;;;16.59;77.29
54948;BME280;41113;41.882;12.530;2023-04-24T05:34:17;100561.13;;;16.60;77.55
54948;BME280;41113;41.882;12.530;2023-04-24T05:36:43;100559.78;;;16.56;79.52
54948;BME280;41113;41.882;12.530;2023-04-24T05:39:09;100566.88;;;16.57;79.46
54948;BME280;41113;41.882;12.530;2023-04-24T05:41:35;100561.34;;;16.50;79.12
54948;BME280;41113;41.882;12.530;2023-04-24T05:44:00;100556.09;;;16.48;82.88
54948;BME280;41113;41.882;12.530;2023-04-24T05:46:25;100555.44;;;16.46;83.07
54948;BME280;41113;41.882;12.530;2023-04-24T05:48:51;100551.34;;;16.50;81.76
54948;BME280;41113;41.882;12.530;2023-04-24T05:51:16;100545.38;;;16.55;82.42
54948;BME280;41113;41.882;12.530;2023-04-24T05:53:41;100541.47;;;16.58;82.79
54948;BME280;41113;41.882;12.530;2023-04-24T05:56:07;100546.56;;;16.61;81.29
54948;BME280;41113;41.882;12.530;2023-04-24T05:58:32;100550.63;;;16.57;82.58
54948;BME280;41113;41.882;12.530;2023-04-24T06:00:58;100560.09;;;16.69;83.02
54948;BME280;41113;41.882;12.530;2023-04-24T06:03:25;100559.97;;;16.85;84.91
54948;BME280;41113;41.882;12.530;2023-04-24T06:05:51;100551.06;;;16.99;81.76
54948;BME280;41113;41.882;12.530;2023-04-24T06:08:16;100560.59;;;16.95;81.86
54948;BME280;41113;41.882;12.530;2023-04-24T06:10:42;100567.41;;;16.91;81.41
54948;BME280;41113;41.882;12.530;2023-04-24T06:13:07;100569.78;;;16.86;82.70
54948;BME280;41113;41.882;12.530;2023-04-24T06:15:33;100571.84;;;16.84;83.21
54948;BME280;41113;41.882;12.530;2023-04-24T06:17:58;100564.78;;;16.75;83.96
54948;BME280;41113;41.882;12.530;2023-04-24T06:20:24;100554.00;;;16.67;83.94
54948;BME280;41113;41.882;12.530;2023-04-24T06:22:50;100550.59;;;16.65;84.80
54948;BME280;41113;41.882;12.530;2023-04-24T06:25:15;100561.78;;;16.70;83.98
54948;BME280;41113;41.882;12.530;2023-04-24T06:27:41;100560.09;;;16.69;85.12
54948;BME280;41113;41.882;12.530;2023-04-24T06:30:07;100570.28;;;16.59;85.93
54948;BME280;41113;41.882;12.530;2023-04-24T06:32:34;100556.88;;;16.57;88.00
54948;BME280;41113;41.882;12.530;2023-04-24T06:34:59;100558.44;;;16.60;86.93
54948;BME280;41113;41.882;12.530;2023-04-24T06:37:24;100552.31;;;16.66;87.00
54948;BME280;41113;41.882;12.530;2023-04-24T06:39:50;100543.16;;;16.67;85.89
54948;BME280;41113;41.882;12.530;2023-04-24T06:42:15;100552.47;;;16.64;86.11
54948;BME280;41113;41.882;12.530;2023-04-24T06:44:40;100563.81;;;16.68;85.63
54948;BME280;41113;41.882;12.530;2023-04-24T06:47:10;100562.06;;;16.75;85.08
54948;BME280;41113;41.882;12.530;2023-04-24T06:49:37;100564.44;;;16.78;87.12
54948;BME280;41113;41.882;12.530;2023-04-24T06:52:02;100553.50;;;16.86;85.07
54948;BME280;41113;41.882;12.530;2023-04-24T06:54:29;100539.72;;;16.96;84.95
54948;BME280;41113;41.882;12.530;2023-04-24T06:56:54;100513.44;;;16.96;85.32
54948;BME280;41113;41.882;12.530;2023-04-24T06:59:20;100497.66;;;17.00;85.04
54948;BME280;41113;41.882;12.530;2023-04-24T07:01:46;100498.84;;;16.97;85.73
54948;BME280;41113;41.882;12.530;2023-04-24T07:04:11;100519.63;;;17.05;86.18
54948;BME280;41113;41.882;12.530;2023-04-24T07:06:38;100525.09;;;17.20;84.50
54948;BME280;41113;41.882;12.530;2023-04-24T07:09:04;100518.59;;;17.29;84.46
54948;BME280;41113;41.882;12.530;2023-04-24T07:11:30;100524.13;;;17.35;84.53
54948;BME280;41113;41.882;12.530;2023-04-24T07:13:55;100506.81;;;17.36;84.70
54948;BME280;41113;41.882;12.530;2023-04-24T07:16:21;100499.78;;;17.42;85.15
54948;BME280;41113;41.882;12.530;2023-04-24T07:18:46;100490.53;;;17.51;83.77
54948;BME280;41113;41.882;12.530;2023-04-24T07:21:12;100486.06;;;17.58;83.60
54948;BME280;41113;41.882;12.530;2023-04-24T07:23:37;100506.94;;;17.58;83.93
54948;BME280;41113;41.882;12.530;2023-04-24T07:26:02;100514.06;;;17.59;83.59
54948;BME280;41113;41.882;12.530;2023-04-24T07:28:28;100514.31;;;17.49;85.71
54948;BME280;41113;41.882;12.530;2023-04-24T07:30:57;100523.75;;;17.53;83.55
54948;BME280;41113;41.882;12.530;2023-04-24T07:33:22;100518.00;;;17.56;83.96
54948;BME280;41113;41.882;12.530;2023-04-24T07:35:48;100529.72;;;17.71;83.29
54948;BME280;41113;41.882;12.530;2023-04-24T07:38:14;100531.59;;;17.86;82.67
54948;BME280;41113;41.882;12.530;2023-04-24T07:40:39;100534.78;;;18.04;82.18
54948;BME280;41113;41.882;12.530;2023-04-24T07:43:05;100531.97;;;18.12;82.40
54948;BME280;41113;41.882;12.530;2023-04-24T07:45:31;100540.56;;;18.16;81.64
54948;BME280;41113;41.882;12.530;2023-04-24T07:47:59;100545.81;;;18.17;81.37
54948;BME280;41113;41.882;12.530;2023-04-24T07:50:25;100551.25;;;18.17;81.35
54948;BME280;41113;41.882;12.530;2023-04-24T07:52:50;100541.53;;;18.08;81.74
54948;BME280;41113;41.882;12.530;2023-04-24T07:55:15;100537.59;;;18.25;80.87
54948;BME280;41113;41.882;12.530;2023-04-24T07:57:41;100533.03;;;18.62;79.52
54948;BME280;41113;41.882;12.530;2023-04-24T08:00:07;100526.94;;;18.81;78.33
54948;BME280;41113;41.882;12.530;2023-04-24T08:02:33;100537.38;;;18.78;78.54
54948;BME280;41113;41.882;12.530;2023-04-24T08:04:58;100545.00;;;18.53;78.68
54948;BME280;41113;41.882;12.530;2023-04-24T08:07:23;100539.41;;;18.40;79.21
54948;BME280;41113;41.882;12.530;2023-04-24T08:09:49;100529.38;;;18.40;78.97
54948;BME280;41113;41.882;12.530;2023-04-24T08:12:14;100530.41;;;18.54;77.70
54948;BME280;41113;41.882;12.530;2023-04-24T08:14:40;100533.88;;;19.05;75.74
54948;BME280;41113;41.882;12.530;2023-04-24T08:17:05;100530.56;;;19.10;75.05
54948;BME280;41113;41.882;12.530;2023-04-24T08:19:31;100532.41;;;19.24;74.80
54948;BME280;41113;41.882;12.530;2023-04-24T08:21:56;100532.03;;;19.34;74.04
54948;BME280;41113;41.882;12.530;2023-04-24T08:24:22;100535.31;;;19.22;74.05
54948;BME280;41113;41.882;12.530;2023-04-24T08:26:48;100536.16;;;19.23;74.23
54948;BME280;41113;41.882;12.530;2023-04-24T08:29:17;100532.41;;;19.24;73.76
54948;BME280;41113;41.882;12.530;2023-04-24T08:31:42;100536.16;;;19.23;73.68
54948;BME280;41113;41.882;12.530;2023-04-24T08:34:09;100532.00;;;19.27;73.50
54948;BME280;41113;41.882;12.530;2023-04-24T08:36:36;100537.50;;;19.34;72.93
54948;BME280;41113;41.882;12.530;2023-04-24T08:39:01;100532.25;;;19.53;72.51
54948;BME280;41113;41.882;12.530;2023-04-24T08:41:27;100532.31;;;19.67;72.15
54948;BME280;41113;41.882;12.530;2023-04-24T08:43:53;100533.44;;;19.79;71.65
54948;BME280;41113;41.882;12.530;2023-04-24T08:46:20;100533.84;;;20.10;70.63
54948;BME280;41113;41.882;12.530;2023-04-24T08:48:45;100541.41;;;20.49;69.40
54948;BME280;41113;41.882;12.530;2023-04-24T08:51:11;100533.28;;;20.22;69.34
54948;BME280;41113;41.882;12.530;2023-04-24T08:53:37;100537.06;;;19.86;70.55
54948;BME280;41113;41.882;12.530;2023-04-24T08:56:03;100543.16;;;19.88;70.05
54948;BME280;41113;41.882;12.530;2023-04-24T08:58:29;100539.16;;;19.84;70.37
54948;BME280;41113;41.882;12.530;2023-04-24T09:00:55;100533.31;;;19.87;70.12
54948;BME280;41113;41.882;12.530;2023-04-24T09:03:21;100541.88;;;19.84;69.94
54948;BME280;41113;41.882;12.530;2023-04-24T09:05:47;100540.84;;;19.85;70.01
54948;BME280;41113;41.882;12.530;2023-04-24T09:08:16;100541.47;;;19.87;69.79
54948;BME280;41113;41.882;12.530;2023-04-24T09:10:42;100533.66;;;19.77;70.04
54948;BME280;41113;41.882;12.530;2023-04-24T09:13:08;100531.13;;;19.76;70.07
54948;BME280;41113;41.882;12.530;2023-04-24T09:15:36;100530.88;;;20.05;69.29
54948;BME280;41113;41.882;12.530;2023-04-24T09:18:02;100529.88;;;20.54;67.84
54948;BME280;41113;41.882;12.530;2023-04-24T09:20:28;100532.69;;;20.33;67.85
54948;BME280;41113;41.882;12.530;2023-04-24T09:22:54;100529.09;;;20.26;68.06
54948;BME280;41113;41.882;12.530;2023-04-24T09:25:20;100532.19;;;20.16;67.95
54948;BME280;41113;41.882;12.530;2023-04-24T09:27:46;100527.91;;;20.00;67.55
54948;BME280;41113;41.882;12.530;2023-04-24T09:30:12;100538.16;;;19.92;68.57
54948;BME280;41113;41.882;12.530;2023-04-24T09:32:38;100527.44;;;19.90;68.61
54948;BME280;41113;41.882;12.530;2023-04-24T09:35:14;100534.41;;;19.65;68.90
54948;BME280;41113;41.882;12.530;2023-04-24T09:37:43;100533.78;;;19.63;69.37
54948;BME280;41113;41.882;12.530;2023-04-24T09:42:36;100518.31;;;19.48;69.42
54948;BME280;41113;41.882;12.530;2023-04-24T09:45:02;100527.13;;;19.50;69.40
54948;BME280;41113;41.882;12.530;2023-04-24T09:47:27;100527.97;;;19.51;69.52
54948;BME280;41113;41.882;12.530;2023-04-24T09:49:57;100523.41;;;19.51;69.56
54948;BME280;41113;41.882;12.530;2023-04-24T09:52:23;100528.97;;;19.43;69.86
54948;BME280;41113;41.882;12.530;2023-04-24T09:54:53;100528.03;;;19.30;70.31
54948;BME280;41113;41.882;12.530;2023-04-24T09:57:19;100526.16;;;19.30;70.28
54948;BME280;41113;41.882;12.530;2023-04-24T09:59:46;100518.22;;;19.35;70.24
54948;BME280;41113;41.882;12.530;2023-04-24T10:02:18;100521.63;;;19.65;69.29
54948;BME280;41113;41.882;12.530;2023-04-24T10:04:54;100531.06;;;19.97;68.31
54948;BME280;41113;41.882;12.530;2023-04-24T10:07:20;100532.78;;;20.11;67.58
54948;BME280;41113;41.882;12.530;2023-04-24T10:09:46;100531.94;;;20.11;67.32
54948;BME280;41113;41.882;12.530;2023-04-24T10:12:12;100539.69;;;20.07;67.44
54948;BME280;41113;41.882;12.530;2023-04-24T10:14:38;100546.78;;;19.95;67.54
54948;BME280;41113;41.882;12.530;2023-04-24T10:17:04;100538.38;;;19.97;67.52
54948;BME280;41113;41.882;12.530;2023-04-24T10:19:30;100529.56;;;19.95;67.46
54948;BME280;41113;41.882;12.530;2023-04-24T10:21:56;100537.97;;;20.00;67.12
54948;BME280;41113;41.882;12.530;2023-04-24T10:24:22;100529.22;;;20.11;66.44
54948;BME280;41113;41.882;12.530;2023-04-24T10:26:48;100532.66;;;20.19;66.03
54948;BME280;41113;41.882;12.530;2023-04-24T10:29:15;100520.44;;;20.15;65.80
54948;BME280;41113;41.882;12.530;2023-04-24T10:31:40;100532.66;;;20.19;65.83
54948;BME280;41113;41.882;12.530;2023-04-24T10:34:07;100540.88;;;20.33;65.31
54948;BME280;41113;41.882;12.530;2023-04-24T10:36:34;100549.13;;;20.46;65.00
54948;BME280;41113;41.882;12.530;2023-04-24T10:39:03;100546.19;;;20.47;65.01
54948;BME280;41113;41.882;12.530;2023-04-24T10:41:31;100540.88;;;20.33;65.31
54948;BME280;41113;41.882;12.530;2023-04-24T10:44:11;100539.38;;;20.24;65.48
54948;BME280;41113;41.882;12.530;2023-04-24T10:46:38;100548.28;;;20.04;66.28
54948;BME280;41113;41.882;12.530;2023-04-24T10:49:07;100542.53;;;19.86;67.08
54948;BME280;41113;41.882;12.530;2023-04-24T10:51:53;100541.13;;;19.69;67.33
54948;BME280;41113;41.882;12.530;2023-04-24T10:56:47;100535.69;;;20.03;66.44
54948;BME280;41113;41.882;12.530;2023-04-24T10:59:24;100536.22;;;20.20;65.34
54948;BME280;41113;41.882;12.530;2023-04-24T11:01:54;100530.47;;;20.08;64.69
54948;BME280;41113;41.882;12.530;2023-04-24T11:04:29;100534.56;;;20.32;64.96
54948;BME280;41113;41.882;12.530;2023-04-24T11:06:55;100528.59;;;20.50;64.25
54948;BME280;41113;41.882;12.530;2023-04-24T11:09:21;100521.47;;;20.49;63.88
54948;BME280;41113;41.882;12.530;2023-04-24T11:11:47;100521.50;;;20.62;63.67
54948;BME280;41113;41.882;12.530;2023-04-24T11:14:16;100522.41;;;20.83;63.03
54948;BME280;41113;41.882;12.530;2023-04-24T11:16:44;100514.84;;;20.85;62.89
54948;BME280;41113;41.882;12.530;2023-04-24T11:26:54;100513.09;;;20.57;63.44
54948;BME280;41113;41.882;12.530;2023-04-24T11:29:20;100517.69;;;20.50;62.84
54948;BME280;41113;41.882;12.530;2023-04-24T11:31:47;100515.13;;;20.42;63.43
54948;BME280;41113;41.882;12.530;2023-04-24T11:34:15;100515.06;;;20.29;63.47
54948;BME280;41113;41.882;12.530;2023-04-24T11:36:45;100507.72;;;20.29;63.43
54948;BME280;41113;41.882;12.530;2023-04-24T11:39:12;100509.63;;;20.35;63.24
54948;BME280;41113;41.882;12.530;2023-04-24T11:41:38;100506.69;;;20.37;63.09
54948;BME280;41113;41.882;12.530;2023-04-24T11:44:06;100500.84;;;20.40;62.99
54948;BME280;41113;41.882;12.530;2023-04-24T11:46:31;100499.13;;;20.32;63.13
54948;BME280;41113;41.882;12.530;2023-04-24T11:48:59;100496.38;;;20.32;62.82
54948;BME280;41113;41.882;12.530;2023-04-24T11:51:29;100494.91;;;20.30;62.84
54948;BME280;41113;41.882;12.530;2023-04-24T11:53:56;100498.25;;;20.25;62.97
54948;BME280;41113;41.882;12.530;2023-04-24T11:56:24;100489.88;;;20.33;62.82
54948;BME280;41113;41.882;12.530;2023-04-24T11:58:53;100488.91;;;20.47;62.13
54948;BME280;41113;41.882;12.530;2023-04-24T12:01:21;100477.00;;;20.62;61.48
54948;BME280;41113;41.882;12.530;2023-04-24T12:03:50;100483.31;;;20.75;60.96
54948;BME280;41113;41.882;12.530;2023-04-24T12:06:16;100480.81;;;20.87;60.55
54948;BME280;41113;41.882;12.530;2023-04-24T12:08:41;100473.25;;;20.83;58.83
54948;BME280;41113;41.882;12.530;2023-04-24T12:11:10;100471.59;;;20.81;58.21
54948;BME280;41113;41.882;12.530;2023-04-24T12:13:37;100472.38;;;20.75;59.75
54948;BME280;41113;41.882;12.530;2023-04-24T12:16:03;100477.25;;;20.87;59.92
54948;BME280;41113;41.882;12.530;2023-04-24T12:18:31;100477.25;;;20.87;59.95
54948;BME280;41113;41.882;12.530;2023-04-24T12:21:23;100466.13;;;20.95;58.21
54948;BME280;41113;41.882;12.530;2023-04-24T12:23:54;100466.97;;;20.89;58.84
54948;BME280;41113;41.882;12.530;2023-04-24T12:26:23;100464.66;;;20.92;58.74
54948;BME280;41113;41.882;12.530;2023-04-24T12:28:50;100472.00;;;20.85;58.82
54948;BME280;41113;41.882;12.530;2023-04-24T12:31:16;100465.25;;;20.74;59.55
54948;BME280;41113;41.882;12.530;2023-04-24T12:33:43;100469.66;;;20.62;59.93
54948;BME280;41113;41.882;12.530;2023-04-24T12:36:12;100484.75;;;20.58;59.52
54948;BME280;41113;41.882;12.530;2023-04-24T12:38:38;100479.09;;;20.53;60.41
54948;BME280;41113;41.882;12.530;2023-04-24T12:41:12;100474.00;;;20.43;59.96
54948;BME280;41113;41.882;12.530;2023-04-24T12:43:38;100475.72;;;20.51;60.60
54948;BME280;41113;41.882;12.530;2023-04-24T12:46:04;100468.38;;;20.58;60.30
54948;BME280;41113;41.882;12.530;2023-04-24T12:48:30;100475.31;;;20.61;60.38